ペトロパブロフスク・カムチャツキー の空港の天気 - METARとTAF

ペトロパブロフスク・カムチャツキー空港 ( UHPP / PKC ) - ロシア ペトロパブロフスク・カムチャツキー
飛行場実況気象(Metar)
観測時間06/20 03:00 MAGT (06/19 16:00 UTC)
風向・風速北 3m/s
視程10km以上
天気現象
少しの雲 雲底高度 120m
気温7℃
湿度87%
気圧1017hPa
METARUHPP 191600Z 01003MPS 9999 FEW004 07/05 Q1017 R34L/CLRD70 NOSIG RMK QFE759/1012
過去の天気等 Google飛行場航空写真 Wunderground天気予報

過去48時間のMETAR

飛行場予報(TAF)
発表時間: 6/20 00:53 MAGT (6/19 13:53 UTC)
予報対象時間: 20日2時 MAGT ~ 21日8時 MAGT
風向・風速北北東 3m/s
視程3100m
天気現象もや
全天を覆う雲 雲底高度 340m
20日2時 MAGT ~ 20日8時 MAGT に一時的に
視程500m
天気現象
全天を覆う雲 鉛直視程 60m
20日8時 MAGT から
風向・風速南 3m/s 瞬間風速 12m/s
視程10km以上
全天の4割程度の積乱雲 雲底高度 910m
20日21時 MAGT から
風向・風速南西 3m/s 瞬間風速 8m/s
視程3100m
天気現象もや
全天の8割程度の雲 雲底高度 340m
全天を覆う積乱雲 雲底高度 760m
20日21時 MAGT ~ 21日8時 MAGT に一時的に
視程1000m
天気現象弱いしゅう雨 もや
全天を覆う雲 鉛直視程 90m
TAF UHPP 191353Z 1915/2021 02003MPS 3100 BR OVC011
TEMPO 1915/1921 0500 FG VV002
FM192100 18003G12MPS 9999 SCT030CB
FM201000 22003G08MPS 3100 BR BKN011 OVC025CB
TEMPO 2010/2021 1000 -SHRA BR VV003